Time;durP1;ratioP1;P1;durP2;ratioP2;P2;SDS_P1;SDS_P2;PMS_P1;PMS_P2;Temp;Humidity;BMP_temperature;BMP_pressure;BME280_temperature;BME280_humidity;BME280_pressure;Samples;Min_cycle;Max_cycle;Signal;HPM_P1;HPM_P2
2023/07/11 00:00:21;;;;;;;5.15;1.48;;;18.40;99.90;;;;;;5078164;28;20128;-58
2023/07/11 00:02:48;;;;;;;5.70;1.52;;;18.40;99.90;;;;;;5077616;28;20033;-57
2023/07/11 00:05:15;;;;;;;5.93;1.70;;;18.40;99.90;;;;;;5077143;28;20045;-57
2023/07/11 00:07:42;;;;;;;6.38;1.42;;;18.40;99.90;;;;;;5077373;28;20049;-57
2023/07/11 00:10:12;;;;;;;5.25;1.45;;;18.40;99.90;;;;;;5075999;28;20415;-58
2023/07/11 00:12:37;;;;;;;4.97;1.60;;;18.40;99.90;;;;;;5077821;28;20056;-58
2023/07/11 00:15:04;;;;;;;6.78;1.80;;;18.40;99.90;;;;;;5075195;28;20052;-57
2023/07/11 00:17:30;;;;;;;5.15;1.48;;;18.40;99.90;;;;;;5077496;28;20580;-57
2023/07/11 00:19:58;;;;;;;5.82;2.05;;;18.40;99.90;;;;;;5077331;28;20053;-57
2023/07/11 00:22:27;;;;;;;5.65;1.70;;;18.30;99.90;;;;;;5076618;28;20066;-57
2023/07/11 00:24:53;;;;;;;6.63;1.70;;;18.30;99.90;;;;;;5077495;28;20076;-57
2023/07/11 00:27:20;;;;;;;8.90;1.70;;;18.30;99.90;;;;;;5075690;28;20040;-58
2023/07/11 00:29:47;;;;;;;4.38;1.30;;;18.30;99.90;;;;;;5077553;28;20048;-57
2023/07/11 00:32:13;;;;;;;5.90;1.35;;;18.30;99.90;;;;;;5076443;28;20081;-57
2023/07/11 00:34:39;;;;;;;5.93;1.40;;;18.30;99.90;;;;;;5076994;28;20119;-57
2023/07/11 00:37:05;;;;;;;5.20;1.45;;;18.30;99.90;;;;;;5077020;28;20040;-57
2023/07/11 00:39:34;;;;;;;4.70;1.27;;;18.30;99.90;;;;;;5076536;28;20044;-58
2023/07/11 00:42:00;;;;;;;6.18;1.65;;;18.30;99.90;;;;;;5077410;28;20086;-57
2023/07/11 00:44:27;;;;;;;6.78;1.60;;;18.30;99.90;;;;;;5076786;28;20095;-57
2023/07/11 00:46:52;;;;;;;4.95;1.60;;;18.30;99.90;;;;;;5081227;28;20036;-57
2023/07/11 00:49:21;;;;;;;4.50;1.40;;;18.30;99.90;;;;;;5079614;28;20045;-58
2023/07/11 00:51:54;;;;;;;4.63;1.40;;;18.30;99.90;;;;;;5080362;28;20055;-57
2023/07/11 00:54:27;;;;;;;4.35;1.30;;;18.30;99.90;;;;;;5080519;28;20087;-57
2023/07/11 00:56:54;;;;;;;4.90;1.60;;;18.30;99.90;;;;;;5079366;28;20101;-57
2023/07/11 00:59:22;;;;;;;6.00;1.60;;;18.30;99.90;;;;;;5080661;28;20044;-58
2023/07/11 01:02:00;;;;;;;4.78;1.33;;;18.30;99.90;;;;;;5078958;28;20066;-58
2023/07/11 01:04:26;;;;;;;5.38;1.38;;;18.30;99.90;;;;;;5080585;28;20039;-57
2023/07/11 01:06:52;;;;;;;5.72;1.77;;;18.20;99.90;;;;;;5080110;28;20048;-57
2023/07/11 01:09:17;;;;;;;6.13;1.83;;;18.30;99.90;;;;;;5079512;28;20052;-58
2023/07/11 01:12:02;;;;;;;5.68;1.40;;;18.30;99.90;;;;;;5080427;28;20127;-58
2023/07/11 01:14:29;;;;;;;4.78;1.42;;;18.30;99.90;;;;;;5079168;28;20052;-58
2023/07/11 01:16:55;;;;;;;6.00;1.48;;;18.30;99.90;;;;;;5079961;28;20040;-57
2023/07/11 01:19:22;;;;;;;4.32;1.33;;;18.30;99.90;;;;;;5079198;28;20073;-58
2023/07/11 01:21:49;;;;;;;5.75;1.33;;;18.30;99.90;;;;;;5080230;28;20390;-58
2023/07/11 01:24:15;;;;;;;4.78;1.23;;;18.40;99.90;;;;;;5079974;28;20055;-57
2023/07/11 01:26:41;;;;;;;4.00;1.05;;;18.40;99.90;;;;;;5079296;28;20041;-57
2023/07/11 01:29:08;;;;;;;7.38;1.85;;;18.50;99.90;;;;;;5078571;28;20439;-57
2023/07/11 01:31:34;;;;;;;5.80;1.20;;;18.40;99.90;;;;;;5078292;28;20137;-57
2023/07/11 01:34:05;;;;;;;4.45;1.48;;;18.40;99.90;;;;;;5080242;28;20029;-57
2023/07/11 01:36:32;;;;;;;5.87;1.70;;;18.40;99.90;;;;;;5079066;28;20045;-58
2023/07/11 01:38:59;;;;;;;4.80;1.23;;;18.50;99.90;;;;;;5079746;28;20040;-57
2023/07/11 01:41:25;;;;;;;5.28;1.33;;;18.50;99.90;;;;;;5079592;28;20412;-57
2023/07/11 01:43:52;;;;;;;5.30;1.35;;;18.50;99.90;;;;;;5078852;28;20052;-57
2023/07/11 01:46:17;;;;;;;4.85;1.60;;;18.50;99.90;;;;;;5078102;28;20489;-58
2023/07/11 01:48:43;;;;;;;5.03;1.55;;;18.50;99.90;;;;;;5078352;28;20481;-57
2023/07/11 01:51:09;;;;;;;6.32;1.63;;;18.60;99.90;;;;;;5080001;28;20036;-57
2023/07/11 01:53:34;;;;;;;6.53;1.30;;;18.50;99.90;;;;;;5078670;28;20080;-58
2023/07/11 01:56:02;;;;;;;5.78;1.88;;;18.60;99.90;;;;;;5078173;28;20044;-57
2023/07/11 01:58:28;;;;;;;4.60;1.20;;;18.50;99.90;;;;;;5079161;28;20326;-57
2023/07/11 02:00:55;;;;;;;6.07;1.63;;;18.50;99.90;;;;;;5078747;28;20048;-57
2023/07/11 02:03:22;;;;;;;4.85;1.48;;;18.50;99.90;;;;;;5079499;28;20079;-57
2023/07/11 02:05:47;;;;;;;4.45;1.42;;;18.50;99.90;;;;;;5077846;28;20044;-57
2023/07/11 02:08:13;;;;;;;4.80;1.55;;;18.40;99.90;;;;;;5078905;28;20048;-57
2023/07/11 02:10:39;;;;;;;5.70;1.50;;;18.40;99.90;;;;;;5077900;28;20063;-58
2023/07/11 02:13:04;;;;;;;5.15;1.92;;;18.40;99.90;;;;;;5078664;28;20524;-57
2023/07/11 02:15:30;;;;;;;6.95;1.70;;;18.40;99.90;;;;;;5078750;28;20060;-57
2023/07/11 02:17:57;;;;;;;7.82;2.10;;;18.40;99.90;;;;;;5078306;28;20112;-57
2023/07/11 02:20:23;;;;;;;9.38;2.00;;;18.40;99.90;;;;;;5078953;28;20492;-57
2023/07/11 02:22:48;;;;;;;8.88;2.28;;;18.40;99.90;;;;;;5075774;28;20078;-57
2023/07/11 02:25:14;;;;;;;8.65;2.25;;;18.40;99.90;;;;;;5078715;28;20554;-58
2023/07/11 02:27:40;;;;;;;7.68;1.98;;;18.40;99.90;;;;;;5077530;28;20067;-57
2023/07/11 02:30:06;;;;;;;5.43;1.98;;;18.40;99.90;;;;;;5078442;28;20051;-57
2023/07/11 02:32:33;;;;;;;6.00;2.05;;;18.40;99.90;;;;;;5078310;28;20040;-58
2023/07/11 02:34:58;;;;;;;5.80;1.90;;;18.40;99.90;;;;;;5078012;28;20099;-57
2023/07/11 02:37:24;;;;;;;6.25;1.75;;;18.40;99.90;;;;;;5078519;28;20054;-57
2023/07/11 02:39:50;;;;;;;8.95;2.10;;;18.30;99.90;;;;;;5076022;28;20051;-57
2023/07/11 02:42:16;;;;;;;5.32;2.00;;;18.30;99.90;;;;;;5078978;28;20036;-57
2023/07/11 02:44:42;;;;;;;6.28;2.35;;;18.40;99.90;;;;;;5077347;28;20040;-58
2023/07/11 02:47:08;;;;;;;8.73;2.28;;;18.30;99.90;;;;;;5078587;28;20040;-58
2023/07/11 02:49:37;;;;;;;7.32;2.13;;;18.40;99.90;;;;;;5078055;28;20048;-57
2023/07/11 02:52:07;;;;;;;5.63;2.20;;;18.40;99.90;;;;;;5077654;28;20109;-58
2023/07/11 02:54:33;;;;;;;6.97;2.03;;;18.30;99.90;;;;;;5078254;28;20373;-57
2023/07/11 02:56:59;;;;;;;5.80;2.60;;;18.40;99.90;;;;;;5059163;28;20488;-58
2023/07/11 02:59:24;;;;;;;7.55;2.28;;;18.40;99.90;;;;;;5078695;28;20062;-57
2023/07/11 03:01:50;;;;;;;7.35;2.60;;;18.40;99.90;;;;;;5075431;28;20049;-57
2023/07/11 03:04:16;;;;;;;5.47;2.20;;;18.40;99.90;;;;;;5077897;28;20041;-58
2023/07/11 03:06:41;;;;;;;6.60;2.22;;;18.40;99.90;;;;;;5077656;28;20734;-57
2023/07/11 03:09:07;;;;;;;8.82;2.72;;;18.30;99.90;;;;;;5077199;28;20036;-57
2023/07/11 03:11:33;;;;;;;6.40;2.40;;;18.30;99.90;;;;;;5078294;28;20057;-58
2023/07/11 03:13:58;;;;;;;7.95;2.58;;;18.30;99.90;;;;;;5076835;28;20040;-57
2023/07/11 03:16:24;;;;;;;7.88;2.35;;;18.30;99.90;;;;;;5078338;28;20412;-57
2023/07/11 03:18:49;;;;;;;7.60;2.58;;;18.30;99.90;;;;;;5076683;28;20492;-57
2023/07/11 03:21:15;;;;;;;7.90;2.70;;;18.30;99.90;;;;;;5065773;28;20037;-58
2023/07/11 03:23:41;;;;;;;7.40;2.70;;;18.30;99.90;;;;;;5075294;28;20040;-57
2023/07/11 03:26:06;;;;;;;7.00;2.20;;;18.30;99.90;;;;;;5062290;28;20048;-57
2023/07/11 03:28:32;;;;;;;6.60;2.50;;;18.20;99.90;;;;;;5057801;28;20044;-57
2023/07/11 03:30:58;;;;;;;8.85;2.75;;;18.20;99.90;;;;;;5056727;28;20048;-59
2023/07/11 03:33:24;;;;;;;8.90;2.40;;;18.20;99.90;;;;;;5058089;28;20044;-57
2023/07/11 03:35:52;;;;;;;5.32;2.25;;;18.10;99.90;;;;;;5056710;28;20048;-57
2023/07/11 03:38:19;;;;;;;6.30;2.47;;;18.10;99.90;;;;;;5056576;28;20045;-58
2023/07/11 03:40:45;;;;;;;6.40;2.63;;;18.10;99.90;;;;;;5056988;28;20045;-57
2023/07/11 03:43:11;;;;;;;7.70;3.00;;;18.10;99.90;;;;;;5057421;28;20455;-57
2023/07/11 03:45:41;;;;;;;9.90;2.50;;;18.00;99.90;;;;;;5057376;28;20127;-57
2023/07/11 03:48:06;;;;;;;8.68;2.80;;;18.00;99.90;;;;;;5056579;28;20044;-57
2023/07/11 03:50:32;;;;;;;7.05;2.38;;;18.00;99.90;;;;;;5056137;28;20044;-58
2023/07/11 03:52:57;;;;;;;8.60;2.65;;;18.00;99.90;;;;;;5057880;28;20167;-57
2023/07/11 03:55:23;;;;;;;10.70;2.58;;;18.00;99.90;;;;;;5078121;28;20040;-57
2023/07/11 03:57:49;;;;;;;6.20;2.45;;;18.00;99.90;;;;;;5076703;28;20067;-58
2023/07/11 04:00:15;;;;;;;9.90;2.70;;;18.00;99.90;;;;;;5077205;28;20052;-58
2023/07/11 04:02:40;;;;;;;8.73;2.80;;;18.00;99.90;;;;;;5077684;28;20070;-57
2023/07/11 04:05:06;;;;;;;8.45;2.33;;;18.00;99.90;;;;;;5076603;28;20040;-58
2023/07/11 04:07:32;;;;;;;10.52;2.67;;;18.00;99.90;;;;;;5077259;28;21126;-57
2023/07/11 04:09:57;;;;;;;6.65;2.60;;;18.00;99.90;;;;;;5075945;28;20044;-58
2023/07/11 04:12:23;;;;;;;6.63;2.25;;;18.00;99.90;;;;;;5078121;28;20072;-58
2023/07/11 04:14:49;;;;;;;6.07;2.40;;;18.00;99.90;;;;;;5076590;28;20044;-57
2023/07/11 04:17:14;;;;;;;6.15;2.33;;;18.00;99.90;;;;;;5077830;28;20056;-58
2023/07/11 04:19:40;;;;;;;7.78;2.70;;;18.00;99.90;;;;;;5078311;28;20400;-58
2023/07/11 04:22:06;;;;;;;7.53;2.67;;;18.00;99.90;;;;;;5080553;28;20083;-58
2023/07/11 04:24:31;;;;;;;10.07;2.97;;;18.00;99.90;;;;;;5081176;28;20098;-58
2023/07/11 04:26:57;;;;;;;7.53;2.88;;;18.10;99.90;;;;;;5080037;28;20078;-57
2023/07/11 04:29:23;;;;;;;13.15;2.90;;;18.10;99.90;;;;;;5080103;28;20055;-57
2023/07/11 04:31:48;;;;;;;8.10;2.65;;;18.10;99.90;;;;;;5079802;28;20692;-58
2023/07/11 04:34:14;;;;;;;7.57;2.85;;;18.10;99.90;;;;;;5080883;28;20051;-58
2023/07/11 04:36:40;;;;;;;8.15;2.78;;;18.10;99.90;;;;;;5080110;28;20057;-58
2023/07/11 04:39:06;;;;;;;5.45;2.60;;;18.10;99.90;;;;;;5080270;28;20092;-57
2023/07/11 04:41:31;;;;;;;7.10;3.22;;;18.20;99.90;;;;;;5080995;28;20048;-57
2023/07/11 04:43:57;;;;;;;7.75;3.30;;;18.10;99.90;;;;;;5079866;28;20517;-58
2023/07/11 04:46:23;;;;;;;7.93;2.78;;;18.10;99.90;;;;;;5080943;28;20086;-58
2023/07/11 04:48:49;;;;;;;8.30;3.05;;;18.20;99.90;;;;;;5079491;28;20048;-57
2023/07/11 04:51:15;;;;;;;9.07;3.78;;;18.20;99.90;;;;;;5081073;28;20395;-57
2023/07/11 04:53:40;;;;;;;8.43;3.53;;;18.30;99.90;;;;;;5079973;28;20060;-57
2023/07/11 04:56:08;;;;;;;7.47;3.33;;;18.30;99.90;;;;;;5080157;28;20048;-58
2023/07/11 04:58:35;;;;;;;8.32;3.50;;;18.30;99.90;;;;;;5080354;28;20052;-58
2023/07/11 05:01:04;;;;;;;11.05;3.45;;;18.30;99.90;;;;;;5079540;28;20040;-58
2023/07/11 05:03:30;;;;;;;6.85;2.78;;;18.30;99.90;;;;;;5080337;28;20051;-58
2023/07/11 05:05:57;;;;;;;10.25;3.60;;;18.30;99.90;;;;;;5078931;28;20071;-58
2023/07/11 05:08:22;;;;;;;7.07;3.05;;;18.30;99.90;;;;;;5080257;28;20041;-58
2023/07/11 05:10:59;;;;;;;7.68;3.30;;;18.30;99.90;;;;;;5078368;28;20504;-58
2023/07/11 05:13:25;;;;;;;7.60;3.78;;;18.40;99.90;;;;;;5076982;28;20353;-58
2023/07/11 05:15:50;;;;;;;7.75;3.83;;;18.60;99.90;;;;;;5076281;28;20225;-58
2023/07/11 05:18:18;;;;;;;9.80;3.88;;;18.70;99.90;;;;;;5075036;28;20044;-58
2023/07/11 05:20:44;;;;;;;8.35;3.78;;;18.80;99.90;;;;;;5076480;28;20052;-56
2023/07/11 05:23:09;;;;;;;8.40;3.58;;;19.00;99.90;;;;;;5075108;28;20056;-58
2023/07/11 05:25:37;;;;;;;8.85;4.05;;;19.00;99.90;;;;;;5075899;28;20072;-58
2023/07/11 05:28:03;;;;;;;9.90;4.03;;;19.10;99.90;;;;;;5075687;28;20056;-58
2023/07/11 05:30:29;;;;;;;9.52;4.00;;;19.10;99.90;;;;;;5075231;28;20074;-58
2023/07/11 05:32:55;;;;;;;10.43;4.07;;;19.10;99.90;;;;;;5076122;28;20045;-58
2023/07/11 05:35:20;;;;;;;9.88;4.57;;;19.10;99.90;;;;;;5073642;28;20781;-58
2023/07/11 05:37:46;;;;;;;10.52;4.07;;;19.10;99.90;;;;;;5075808;28;20137;-57
2023/07/11 05:40:12;;;;;;;9.90;4.43;;;19.40;99.90;;;;;;5070631;28;20057;-58
2023/07/11 05:42:37;;;;;;;10.10;4.25;;;19.40;99.90;;;;;;5055859;28;20072;-58
2023/07/11 05:45:03;;;;;;;11.70;5.40;;;19.50;99.90;;;;;;5054955;28;20045;-58
2023/07/11 05:47:29;;;;;;;9.55;4.63;;;19.50;99.90;;;;;;5055026;28;20418;-58
2023/07/11 05:49:54;;;;;;;8.00;4.15;;;19.50;99.90;;;;;;5055030;28;20037;-57
2023/07/11 05:52:20;;;;;;;9.00;4.45;;;19.40;99.90;;;;;;5054380;28;20658;-57
2023/07/11 05:54:46;;;;;;;10.38;4.68;;;19.50;99.90;;;;;;5071943;28;20597;-57
2023/07/11 05:57:12;;;;;;;13.30;4.47;;;19.50;99.90;;;;;;5074450;28;20453;-58
2023/07/11 05:59:37;;;;;;;10.57;4.32;;;19.50;99.90;;;;;;5075863;28;20045;-58
2023/07/11 06:02:03;;;;;;;10.30;4.68;;;19.40;99.90;;;;;;5074253;28;20040;-58
2023/07/11 06:04:29;;;;;;;9.02;4.30;;;19.50;99.90;;;;;;5075337;28;20059;-58
2023/07/11 06:06:55;;;;;;;8.68;4.25;;;19.60;99.90;;;;;;5074862;28;20036;-58
2023/07/11 06:09:20;;;;;;;10.10;4.35;;;19.70;99.90;;;;;;5073449;28;20045;-58
2023/07/11 06:11:48;;;;;;;11.00;4.05;;;19.70;99.90;;;;;;5075644;28;20527;-58
2023/07/11 06:14:15;;;;;;;9.32;4.68;;;19.80;99.90;;;;;;5073496;28;20471;-58
2023/07/11 06:16:42;;;;;;;13.57;5.28;;;19.80;99.90;;;;;;5075436;28;20044;-56
2023/07/11 06:19:08;;;;;;;9.48;4.30;;;19.80;99.90;;;;;;5065750;28;20041;-58
2023/07/11 06:21:34;;;;;;;8.45;4.30;;;20.00;99.90;;;;;;5061912;28;20072;-58
2023/07/11 06:24:00;;;;;;;11.32;5.07;;;20.00;99.90;;;;;;5054727;28;20044;-58
2023/07/11 06:26:25;;;;;;;10.43;5.53;;;20.20;99.90;;;;;;5061202;28;20484;-58
2023/07/11 06:28:51;;;;;;;13.10;4.90;;;20.40;99.90;;;;;;5059998;28;20104;-59
2023/07/11 06:31:17;;;;;;;9.93;4.50;;;20.40;99.90;;;;;;5056744;28;20037;-59
2023/07/11 06:33:43;;;;;;;9.30;4.38;;;20.60;99.90;;;;;;5056221;28;20051;-58
2023/07/11 06:36:09;;;;;;;9.48;4.32;;;20.60;99.90;;;;;;5053690;28;20040;-58
2023/07/11 06:38:35;;;;;;;9.57;5.07;;;20.70;99.90;;;;;;5061277;28;20291;-58
2023/07/11 06:41:02;;;;;;;8.77;4.32;;;20.80;99.90;;;;;;5064331;28;20048;-59
2023/07/11 06:43:29;;;;;;;8.98;4.25;;;20.90;99.90;;;;;;5062379;28;20063;-58
2023/07/11 06:45:57;;;;;;;10.32;3.92;;;21.20;99.90;;;;;;5054341;28;20044;-59
2023/07/11 06:48:25;;;;;;;12.25;4.72;;;21.30;99.90;;;;;;5069748;28;20086;-58
2023/07/11 06:50:54;;;;;;;9.75;4.63;;;21.30;99.90;;;;;;5074363;28;20059;-59
2023/07/11 06:53:22;;;;;;;10.63;5.05;;;21.60;99.90;;;;;;5073385;28;20040;-58
2023/07/11 06:55:49;;;;;;;11.60;4.45;;;21.70;99.90;;;;;;5074499;28;20055;-58
2023/07/11 06:58:15;;;;;;;7.82;3.70;;;21.70;99.90;;;;;;5073539;28;20036;-58
2023/07/11 07:00:41;;;;;;;11.77;4.65;;;21.60;99.90;;;;;;5066816;28;20075;-58
2023/07/11 07:03:12;;;;;;;9.88;3.92;;;21.70;99.90;;;;;;5060371;28;20037;-58
2023/07/11 07:05:38;;;;;;;11.43;4.38;;;21.80;99.90;;;;;;5056131;28;20040;-58
2023/07/11 07:08:03;;;;;;;10.15;4.07;;;21.80;99.90;;;;;;5057611;28;20058;-59
2023/07/11 07:10:29;;;;;;;11.40;3.97;;;21.80;99.90;;;;;;5056796;28;20052;-59
2023/07/11 07:12:55;;;;;;;10.23;4.32;;;21.80;99.90;;;;;;5057777;28;20469;-58
2023/07/11 07:15:20;;;;;;;10.13;4.15;;;21.90;99.90;;;;;;5056268;28;20114;-58
2023/07/11 07:17:46;;;;;;;9.65;4.38;;;22.00;99.90;;;;;;5057445;28;20123;-59
2023/07/11 07:20:12;;;;;;;11.27;3.63;;;22.00;99.90;;;;;;5058019;28;20044;-56
2023/07/11 07:22:38;;;;;;;9.00;4.05;;;22.00;99.90;;;;;;5056675;28;20139;-59
2023/07/11 07:25:04;;;;;;;8.30;3.55;;;22.20;99.90;;;;;;5057922;28;20041;-58
2023/07/11 07:27:30;;;;;;;9.32;3.88;;;22.20;99.90;;;;;;5056875;28;20186;-58
2023/07/11 07:29:56;;;;;;;10.38;3.67;;;22.20;99.90;;;;;;5057512;28;20053;-58
2023/07/11 07:32:21;;;;;;;8.95;4.60;;;22.30;99.90;;;;;;5057671;28;20047;-59
2023/07/11 07:34:47;;;;;;;10.20;3.90;;;22.30;99.90;;;;;;5057035;28;20589;-58
2023/07/11 07:37:13;;;;;;;9.65;3.58;;;22.40;99.90;;;;;;5057536;28;20085;-59
2023/07/11 07:39:40;;;;;;;8.50;3.65;;;22.30;99.90;;;;;;5056443;28;20779;-59
2023/07/11 07:42:06;;;;;;;8.35;3.78;;;22.30;99.90;;;;;;5058028;28;20115;-58
2023/07/11 07:44:32;;;;;;;9.45;3.65;;;22.20;99.90;;;;;;5054732;28;20068;-58
2023/07/11 07:46:57;;;;;;;9.82;3.55;;;22.20;99.90;;;;;;5060673;28;20044;-58
2023/07/11 07:49:23;;;;;;;9.75;3.50;;;22.20;99.90;;;;;;5077167;28;20044;-58
2023/07/11 07:51:49;;;;;;;8.45;3.30;;;22.30;99.90;;;;;;5077297;28;20044;-58
2023/07/11 07:54:14;;;;;;;10.35;3.95;;;22.30;99.90;;;;;;5076754;28;20055;-58
2023/07/11 07:56:40;;;;;;;7.53;3.08;;;22.30;99.90;;;;;;5080959;28;20503;-59
2023/07/11 07:59:05;;;;;;;9.55;3.67;;;22.30;99.90;;;;;;5082100;28;20387;-58
2023/07/11 08:01:31;;;;;;;7.68;3.55;;;22.40;99.90;;;;;;5080324;28;20108;-59
2023/07/11 08:03:57;;;;;;;12.00;3.78;;;22.50;99.90;;;;;;5081716;28;20055;-58
2023/07/11 08:06:23;;;;;;;7.20;3.30;;;22.50;99.90;;;;;;5080856;28;20045;-58
2023/07/11 08:08:50;;;;;;;10.20;3.30;;;22.60;99.90;;;;;;5063117;28;20080;-59
2023/07/11 08:11:18;;;;;;;9.05;4.15;;;22.70;99.90;;;;;;5081558;28;20374;-58
2023/07/11 08:13:45;;;;;;;8.32;3.28;;;22.70;99.90;;;;;;5080470;28;20084;-59
2023/07/11 08:16:10;;;;;;;8.95;3.60;;;22.80;99.90;;;;;;5081433;28;20056;-58
2023/07/11 08:18:36;;;;;;;10.57;3.10;;;22.90;99.90;;;;;;5080151;28;20078;-59
2023/07/11 08:21:02;;;;;;;7.00;3.03;;;22.90;99.90;;;;;;5081653;28;20051;-59
2023/07/11 08:23:28;;;;;;;9.18;3.33;;;23.00;99.90;;;;;;5080377;28;20499;-58
2023/07/11 08:25:55;;;;;;;9.35;3.22;;;23.00;99.90;;;;;;5081183;28;20039;-59
2023/07/11 08:28:21;;;;;;;7.38;2.95;;;22.90;99.90;;;;;;5081181;28;20076;-56
2023/07/11 08:30:47;;;;;;;7.90;3.08;;;23.00;99.90;;;;;;5080342;28;20037;-58
2023/07/11 08:33:14;;;;;;;7.78;3.10;;;23.00;99.90;;;;;;5081338;28;20043;-59
2023/07/11 08:35:39;;;;;;;11.13;3.85;;;23.20;99.90;;;;;;5079894;28;20173;-59
2023/07/11 08:38:11;;;;;;;8.85;3.25;;;23.30;99.90;;;;;;5081106;28;20426;-59
2023/07/11 08:40:43;;;;;;;7.38;3.20;;;23.50;99.90;;;;;;5080161;28;20084;-59
2023/07/11 08:43:35;;;;;;;;;;;23.70;99.90;;;;;;5081166;28;20053;-58
2023/07/11 08:46:06;;;;;;;8.20;3.35;;;23.80;95.20;;;;;;5078606;28;19920;-59
2023/07/11 08:48:34;;;;;;;;;;;23.90;95.00;;;;;;5079854;28;20060;-58
2023/07/11 08:51:19;;;;;;;9.52;3.40;;;24.10;95.50;;;;;;5081053;28;19920;-58
2023/07/11 08:53:55;;;;;;;6.40;2.85;;;24.30;94.60;;;;;;5080405;28;20082;-58
2023/07/11 08:56:48;;;;;;;8.55;3.00;;;24.60;95.00;;;;;;5079809;28;20041;-58
2023/07/11 08:59:17;;;;;;;7.88;2.95;;;24.60;91.20;;;;;;5081008;28;20383;-59
2023/07/11 09:01:55;;;;;;;9.70;3.58;;;24.70;90.40;;;;;;5079639;28;20044;-58
2023/07/11 09:04:22;;;;;;;8.20;3.03;;;24.60;81.00;;;;;;5080514;28;20046;-59
2023/07/11 09:07:06;;;;;;;8.50;2.78;;;24.70;77.90;;;;;;5079658;28;20047;-60
2023/07/11 09:09:32;;;;;;;8.88;3.25;;;24.70;74.50;;;;;;5079063;28;20051;-58
2023/07/11 09:12:10;;;;;;;8.48;2.92;;;24.70;76.60;;;;;;5080670;28;20048;-60
2023/07/11 09:15:00;;;;;;;7.57;2.88;;;24.90;78.30;;;;;;5077993;28;20079;-58
2023/07/11 09:18:03;;;;;;;7.13;2.50;;;25.00;74.40;;;;;;5079860;28;20491;-59
2023/07/11 09:20:43;;;;;;;7.28;2.60;;;25.10;74.40;;;;;;5080353;28;20099;-59
2023/07/11 09:23:15;;;;;;;9.27;2.90;;;25.30;76.60;;;;;;5078998;28;20489;-59
2023/07/11 09:25:42;;;;;;;;;;;25.10;70.70;;;;;;5080488;28;20097;-59
2023/07/11 09:28:33;;;;;;;7.85;2.47;;;25.40;74.00;;;;;;5079618;28;20429;-60
2023/07/11 09:31:05;;;;;;;6.82;2.85;;;25.50;71.80;;;;;;5079079;28;20109;-59
2023/07/11 09:33:33;;;;;;;7.75;2.50;;;25.50;69.20;;;;;;5079868;28;20076;-58
2023/07/11 09:36:00;;;;;;;9.55;2.60;;;25.30;71.90;;;;;;5078646;28;20044;-59
2023/07/11 09:39:12;;;;;;;7.32;2.90;;;25.30;69.90;;;;;;5079055;28;20041;-58
2023/07/11 09:42:00;;;;;;;7.63;2.30;;;25.50;71.20;;;;;;5074708;28;20082;-58
2023/07/11 09:44:26;;;;;;;8.00;2.40;;;25.50;67.20;;;;;;5078406;28;20045;-59
2023/07/11 09:46:52;;;;;;;9.95;2.75;;;25.50;65.10;;;;;;5079609;28;20047;-59
2023/07/11 09:49:28;;;;;;;7.95;2.42;;;25.70;64.70;;;;;;5079562;28;20052;-59
2023/07/11 09:51:57;;;;;;;6.95;2.45;;;25.80;65.60;;;;;;5079306;28;20040;-59
2023/07/11 09:54:25;;;;;;;6.63;2.13;;;25.90;63.50;;;;;;5080025;28;20090;-59
2023/07/11 09:56:52;;;;;;;7.03;2.13;;;26.00;67.20;;;;;;5078439;28;20052;-59
2023/07/11 09:59:20;;;;;;;9.40;2.30;;;26.10;68.90;;;;;;5080053;28;20081;-58
2023/07/11 10:01:55;;;;;;;9.02;2.40;;;26.00;64.40;;;;;;5078743;28;20071;-58
2023/07/11 10:04:24;;;;;;;7.95;2.45;;;25.90;66.00;;;;;;5079664;28;20048;-58
2023/07/11 10:07:15;;;;;;;7.00;2.30;;;26.00;69.70;;;;;;5079239;28;20032;-58
2023/07/11 10:09:45;;;;;;;6.80;2.30;;;26.10;63.90;;;;;;5078190;28;20050;-60
2023/07/11 10:12:23;;;;;;;8.70;2.03;;;26.00;59.80;;;;;;5078424;28;20045;-58
2023/07/11 10:14:58;;;;;;;5.82;2.20;;;26.10;60.80;;;;;;5078647;28;20821;-59
2023/07/11 10:17:31;;;;;;;6.25;2.20;;;26.00;59.90;;;;;;5077805;28;20087;-59
2023/07/11 10:19:59;;;;;;;7.85;2.05;;;26.10;59.00;;;;;;5079443;28;20836;-58
2023/07/11 10:22:28;;;;;;;6.38;2.28;;;26.30;63.60;;;;;;5076643;28;20066;-59
2023/07/11 10:25:27;;;;;;;8.65;2.63;;;25.90;61.30;;;;;;5079618;28;20079;-58
2023/07/11 10:27:58;;;;;;;5.57;2.20;;;25.70;62.40;;;;;;5070046;28;20113;-59
2023/07/11 10:30:28;;;;;;;5.93;2.28;;;25.90;66.60;;;;;;5078494;28;20059;-59
2023/07/11 10:33:29;;;;;;;6.18;2.10;;;26.10;64.00;;;;;;5079008;28;20036;-59
2023/07/11 10:36:09;;;;;;;7.30;2.30;;;26.40;65.10;;;;;;5055158;28;20053;-59
2023/07/11 10:38:45;;;;;;;6.00;2.22;;;26.50;61.90;;;;;;5078641;28;20048;-59
2023/07/11 10:41:22;;;;;;;7.25;2.20;;;26.50;65.00;;;;;;5077409;28;20048;-58
2023/07/11 10:43:51;;;;;;;7.28;2.20;;;26.50;62.10;;;;;;5077637;28;20052;-59
2023/07/11 10:46:41;;;;;;;12.48;2.60;;;26.40;63.90;;;;;;5078848;28;20040;-58
2023/07/11 10:49:14;;;;;;;6.53;2.35;;;26.00;61.80;;;;;;5077850;28;20072;-56
2023/07/11 10:51:51;;;;;;;7.25;2.50;;;26.10;63.00;;;;;;5078401;28;20049;-59
2023/07/11 10:54:16;;;;;;;6.18;2.33;;;26.20;64.80;;;;;;5078739;28;20052;-57
2023/07/11 10:56:46;;;;;;;8.75;2.63;;;26.30;66.80;;;;;;5077546;28;20041;-59
2023/07/11 10:59:13;;;;;;;7.70;2.83;;;26.30;65.10;;;;;;5079093;28;20047;-58
2023/07/11 11:01:59;;;;;;;7.05;2.47;;;26.10;59.60;;;;;;5077564;28;20051;-58
2023/07/11 11:05:07;;;;;;;6.43;2.45;;;26.10;60.60;;;;;;5078448;28;20052;-59
2023/07/11 11:07:41;;;;;;;8.38;2.50;;;25.90;60.20;;;;;;5078427;28;20381;-59
2023/07/11 11:10:34;;;;;;;5.32;1.88;;;26.40;64.80;;;;;;5076962;28;20411;-59
2023/07/11 11:13:20;;;;;;;7.80;2.58;;;26.30;60.10;;;;;;5077803;28;20448;-59
2023/07/11 11:15:51;;;;;;;8.07;2.38;;;26.30;60.90;;;;;;5077558;28;20044;-58
2023/07/11 11:18:33;;;;;;;8.75;2.92;;;26.20;59.90;;;;;;5076699;28;20457;-59
2023/07/11 11:21:08;;;;;;;10.63;2.30;;;25.90;58.10;;;;;;5077964;28;20051;-59
2023/07/11 11:24:12;;;;;;;6.28;2.08;;;26.20;60.60;;;;;;5077407;28;20092;-59
2023/07/11 11:26:54;;;;;;;9.02;3.55;;;26.50;63.50;;;;;;5076488;28;20055;-59
2023/07/11 11:29:34;;;;;;;7.25;2.70;;;26.40;62.40;;;;;;5077900;28;20062;-59
2023/07/11 11:32:09;;;;;;;7.72;2.67;;;26.20;62.30;;;;;;5077269;28;20056;-59
2023/07/11 11:34:53;;;;;;;8.52;2.83;;;26.10;64.30;;;;;;5077321;28;20104;-58
2023/07/11 11:37:28;;;;;;;8.35;2.92;;;26.20;64.50;;;;;;5077367;28;20071;-59
2023/07/11 11:40:28;;;;;;;9.38;3.13;;;26.20;64.90;;;;;;5076524;28;20405;-59
2023/07/11 11:43:03;;;;;;;7.03;2.55;;;26.30;63.10;;;;;;5073523;28;20059;-59
2023/07/11 11:45:29;;;;;;;7.38;2.38;;;26.30;63.40;;;;;;5077339;28;20055;-59
2023/07/11 11:47:58;;;;;;;8.70;2.72;;;26.30;64.90;;;;;;5076791;28;20382;-59
2023/07/11 11:50:26;;;;;;;7.72;2.75;;;26.60;63.40;;;;;;5077640;28;20075;-59
2023/07/11 11:53:21;;;;;;;12.52;3.38;;;26.70;63.00;;;;;;5076215;28;20040;-59
2023/07/11 11:56:05;;;;;;;8.35;2.35;;;26.50;62.70;;;;;;5073053;28;20595;-58
2023/07/11 11:58:34;;;;;;;6.95;2.80;;;26.40;61.30;;;;;;5077376;28;20041;-59
2023/07/11 12:01:00;;;;;;;7.88;2.85;;;26.30;63.30;;;;;;5020761;28;20522;-59
2023/07/11 12:03:32;;;;;;;8.32;2.80;;;26.00;63.20;;;;;;5077632;28;20043;-58
2023/07/11 12:06:00;;;;;;;8.00;2.90;;;25.90;61.90;;;;;;5076406;28;20465;-58
2023/07/11 12:08:37;;;;;;;8.15;3.85;;;25.90;62.90;;;;;;5076659;28;20041;-59
2023/07/11 12:11:09;;;;;;;8.90;2.63;;;25.90;64.60;;;;;;5077137;28;20040;-58
2023/07/11 12:13:37;;;;;;;8.30;2.58;;;26.00;62.40;;;;;;5075942;28;20132;-58
2023/07/11 12:16:27;;;;;;;9.75;2.92;;;26.00;64.90;;;;;;5077010;28;20063;-58
2023/07/11 12:18:57;;;;;;;7.55;2.97;;;26.00;66.10;;;;;;5068817;28;20048;-59
2023/07/11 12:21:43;;;;;;;7.32;3.10;;;25.90;66.40;;;;;;5077168;28;20109;-59
2023/07/11 12:24:39;;;;;;;9.25;2.92;;;25.90;66.30;;;;;;5077007;28;20083;-58
2023/07/11 12:27:17;;;;;;;7.13;3.10;;;25.90;67.30;;;;;;5075679;28;20048;-59
2023/07/11 12:29:53;;;;;;;11.85;3.33;;;25.90;67.10;;;;;;5077361;28;20048;-59
2023/07/11 12:32:31;;;;;;;8.27;3.55;;;26.20;71.40;;;;;;5076908;28;20045;-59
2023/07/11 12:35:06;;;;;;;8.52;3.35;;;26.00;67.20;;;;;;5076470;28;20048;-58
2023/07/11 12:37:52;;;;;;;10.02;3.45;;;26.00;68.30;;;;;;5076805;28;20044;-59
2023/07/11 12:40:17;;;;;;;9.60;3.70;;;25.80;67.80;;;;;;5068920;28;20053;-56
2023/07/11 12:42:53;;;;;;;11.18;3.90;;;26.10;69.50;;;;;;5080799;28;20622;-59
2023/07/11 12:45:24;;;;;;;10.88;3.05;;;26.20;70.30;;;;;;5080695;28;20057;-58
2023/07/11 12:48:05;;;;;;;11.00;3.28;;;26.20;69.70;;;;;;5080015;28;20037;-59
2023/07/11 12:50:48;;;;;;;9.85;3.28;;;26.30;69.40;;;;;;5081074;28;20170;-59
2023/07/11 12:53:14;;;;;;;8.25;3.35;;;26.10;65.90;;;;;;5079473;28;20048;-59
2023/07/11 12:55:45;;;;;;;7.75;3.00;;;26.30;67.20;;;;;;5078848;28;20289;-59
2023/07/11 12:58:17;;;;;;;9.65;3.05;;;26.40;67.80;;;;;;5080187;28;20113;-59